Time;durP1;ratioP1;P1;durP2;ratioP2;P2;SDS_P1;SDS_P2;PMS_P1;PMS_P2;Temp;Humidity;BMP_temperature;BMP_pressure;BME280_temperature;BME280_humidity;BME280_pressure;Samples;Min_cycle;Max_cycle;Signal;HPM_P1;HPM_P2
2023/12/14 00:01:11;;;;;;;39.72;21.63;;;;;;;7.20;100.00;98584.38;4968994;28;20467;-73
2023/12/14 00:03:36;;;;;;;39.30;22.10;;;;;;;7.23;100.00;98584.09;4983292;28;20030;-72
2023/12/14 00:06:02;;;;;;;40.88;22.02;;;;;;;7.24;100.00;98580.50;4983974;28;20022;-72
2023/12/14 00:08:28;;;;;;;41.13;21.60;;;;;;;7.19;100.00;98578.28;4981487;28;20495;-74
2023/12/14 00:10:53;;;;;;;40.78;21.77;;;;;;;7.18;100.00;98584.53;4989164;28;20336;-73
2023/12/14 00:13:19;;;;;;;42.33;21.80;;;;;;;7.16;100.00;98588.25;4981369;28;20435;-75
2023/12/14 00:15:44;;;;;;;43.33;22.50;;;;;;;7.16;100.00;98588.25;4985466;28;20042;-74
2023/12/14 00:18:10;;;;;;;38.17;20.85;;;;;;;7.14;100.00;98588.41;4983241;28;20085;-76
2023/12/14 00:20:35;;;;;;;41.88;21.92;;;;;;;7.06;100.00;98588.31;4986312;28;20077;-73
2023/12/14 00:23:01;;;;;;;39.97;22.98;;;;;;;6.97;100.00;98587.38;4982444;28;20529;-74
2023/12/14 00:25:26;;;;;;;44.45;22.88;;;;;;;6.88;100.00;98590.03;4984864;28;20038;-74
2023/12/14 00:27:52;;;;;;;44.95;22.25;;;;;;;6.83;100.00;98595.69;4980114;28;20038;-73
2023/12/14 00:30:17;;;;;;;42.08;23.40;;;;;;;6.76;100.00;98586.75;4984967;28;20042;-74
2023/12/14 00:32:42;;;;;;;45.17;24.80;;;;;;;6.71;100.00;98603.88;4980393;28;20113;-73
2023/12/14 00:35:08;;;;;;;38.90;21.70;;;;;;;6.72;100.00;98601.09;4983545;28;20030;-73
2023/12/14 00:37:33;;;;;;;39.95;22.73;;;;;;;6.75;100.00;98606.06;4982156;28;20713;-72
2023/12/14 00:39:59;;;;;;;38.00;21.83;;;;;;;6.79;100.00;98611.84;4986384;28;20117;-73
2023/12/14 00:42:24;;;;;;;38.55;21.75;;;;;;;6.84;100.00;98610.44;4980668;28;20053;-73
2023/12/14 00:44:50;;;;;;;44.22;23.10;;;;;;;6.88;100.00;98617.09;4984168;28;20026;-74
2023/12/14 00:47:15;;;;;;;40.35;22.60;;;;;;;6.91;100.00;98619.41;4982589;28;20113;-74
2023/12/14 00:49:40;;;;;;;40.70;23.13;;;;;;;6.97;100.00;98610.16;4984484;28;20049;-73
2023/12/14 00:52:06;;;;;;;39.22;21.60;;;;;;;6.98;100.00;98617.03;4983923;28;20100;-74
2023/12/14 00:54:31;;;;;;;40.17;22.35;;;;;;;7.01;100.00;98619.38;4981656;28;20502;-73
2023/12/14 00:56:57;;;;;;;35.45;20.88;;;;;;;7.01;100.00;98615.94;4966773;28;20046;-74
2023/12/14 00:59:22;;;;;;;38.85;21.40;;;;;;;7.01;100.00;98611.50;4988970;28;20037;-74
2023/12/14 01:01:48;;;;;;;46.33;23.83;;;;;;;7.01;100.00;98621.19;4983916;28;20034;-75
2023/12/14 01:04:13;;;;;;;40.83;22.33;;;;;;;6.94;100.00;98632.25;4985087;28;20383;-74
2023/12/14 01:06:39;;;;;;;40.67;22.27;;;;;;;6.98;100.00;98627.53;4983123;28;20391;-74
2023/12/14 01:09:04;;;;;;;38.50;22.05;;;;;;;7.04;100.00;98631.38;4982445;28;20042;-74
2023/12/14 01:11:30;;;;;;;38.70;22.40;;;;;;;7.03;100.00;98630.56;4984178;28;20034;-75
2023/12/14 01:13:55;;;;;;;38.80;21.42;;;;;;;7.07;100.00;98639.00;4981342;28;20030;-74
2023/12/14 01:16:20;;;;;;;39.20;20.88;;;;;;;6.89;100.00;98634.44;4985128;28;20501;-73
2023/12/14 01:18:46;;;;;;;34.63;20.50;;;;;;;6.91;100.00;98632.53;4981031;28;20464;-74
2023/12/14 01:21:11;;;;;;;37.63;19.75;;;;;;;6.96;100.00;98640.78;4982974;28;20491;-74
2023/12/14 01:23:38;;;;;;;40.35;21.17;;;;;;;7.02;100.00;98641.19;4982316;28;20041;-75
2023/12/14 01:26:03;;;;;;;41.80;22.20;;;;;;;7.01;100.00;98642.97;4983745;28;20031;-75
2023/12/14 01:28:29;;;;;;;37.72;21.08;;;;;;;6.90;100.00;98643.97;4981098;28;20395;-74
2023/12/14 01:30:54;;;;;;;39.35;21.23;;;;;;;6.86;100.00;98650.47;4987335;28;20487;-74
2023/12/14 01:33:20;;;;;;;37.40;20.58;;;;;;;6.83;100.00;98650.75;4984015;28;20053;-75
2023/12/14 01:35:45;;;;;;;38.30;21.17;;;;;;;6.84;100.00;98655.03;4992641;28;20026;-74
2023/12/14 01:38:11;;;;;;;39.70;21.90;;;;;;;6.84;100.00;98655.03;4971201;28;20479;-73
2023/12/14 01:40:36;;;;;;;36.97;21.50;;;;;;;6.81;100.00;98663.19;4988224;28;20046;-73
2023/12/14 01:43:10;;;;;;;43.97;22.85;;;;;;;6.81;100.00;98668.44;4988635;28;20094;-74
2023/12/14 01:45:36;;;;;;;37.33;21.63;;;;;;;6.83;100.00;98671.72;4987105;28;20046;-73
2023/12/14 01:48:02;;;;;;;36.58;21.52;;;;;;;6.87;100.00;98673.13;4985295;28;20049;-73
2023/12/14 01:50:27;;;;;;;41.35;22.08;;;;;;;6.91;100.00;98679.72;4987865;28;20038;-74
2023/12/14 01:52:52;;;;;;;42.95;23.23;;;;;;;6.92;100.00;98681.38;4988152;28;20106;-74
2023/12/14 01:55:18;;;;;;;40.15;22.20;;;;;;;6.92;100.00;98685.81;4991961;28;20125;-75
2023/12/14 01:57:43;;;;;;;40.45;22.13;;;;;;;6.91;100.00;98684.16;4986281;28;20092;-73
2023/12/14 02:00:22;;;;;;;42.65;22.83;;;;;;;6.91;100.00;98692.00;4988029;28;20061;-74
2023/12/14 02:02:47;;;;;;;41.58;21.88;;;;;;;6.89;100.00;98691.34;4988114;28;20070;-74
2023/12/14 02:05:13;;;;;;;40.03;20.85;;;;;;;6.82;100.00;98696.31;4985626;28;20081;-74
2023/12/14 02:07:38;;;;;;;41.22;22.45;;;;;;;6.82;100.00;98698.13;4988247;28;20533;-74
2023/12/14 02:10:05;;;;;;;42.70;22.52;;;;;;;6.81;100.00;98702.53;4987503;28;20113;-71
2023/12/14 02:12:33;;;;;;;40.17;21.77;;;;;;;6.84;100.00;98704.84;4984189;28;20030;-73
2023/12/14 02:14:59;;;;;;;40.08;22.02;;;;;;;6.87;100.00;98707.22;4991881;28;20031;-73
2023/12/14 02:17:24;;;;;;;40.22;21.45;;;;;;;6.92;100.00;98701.53;4987725;28;20084;-74
2023/12/14 02:19:50;;;;;;;42.42;22.63;;;;;;;6.95;100.00;98712.56;4984778;28;20391;-74
2023/12/14 02:22:17;;;;;;;38.40;21.92;;;;;;;6.97;100.00;98715.88;4986941;28;20022;-74
2023/12/14 02:24:42;;;;;;;36.75;19.50;;;;;;;6.91;100.00;98715.63;4988122;28;20034;-74
2023/12/14 02:27:08;;;;;;;37.83;20.13;;;;;;;6.87;100.00;98716.88;4988120;28;20045;-73
2023/12/14 02:29:33;;;;;;;37.13;20.88;;;;;;;6.87;100.00;98717.72;4969327;28;20030;-75
2023/12/14 02:31:59;;;;;;;38.67;19.23;;;;;;;6.80;100.00;98713.97;4985127;28;20400;-74
2023/12/14 02:34:27;;;;;;;37.50;20.15;;;;;;;6.88;100.00;98710.66;4985895;28;20391;-74
2023/12/14 02:36:53;;;;;;;43.58;22.05;;;;;;;6.89;100.00;98705.25;4986896;28;20026;-73
2023/12/14 02:39:18;;;;;;;38.17;20.05;;;;;;;6.89;100.00;98713.13;4984180;28;20373;-73
2023/12/14 02:41:44;;;;;;;38.58;20.13;;;;;;;6.78;100.00;98715.91;4985745;28;20036;-74
2023/12/14 02:44:09;;;;;;;41.05;21.10;;;;;;;6.80;100.00;98719.22;4981256;28;20030;-74
2023/12/14 02:46:35;;;;;;;36.85;20.60;;;;;;;6.85;100.00;98710.94;4984369;28;20046;-76
2023/12/14 02:49:00;;;;;;;37.83;21.67;;;;;;;6.88;100.00;98722.00;4986896;28;20118;-74
2023/12/14 02:51:26;;;;;;;41.70;21.80;;;;;;;6.89;100.00;98723.63;4986838;28;20112;-75
2023/12/14 02:53:51;;;;;;;39.65;21.13;;;;;;;6.94;100.00;98726.69;4983903;28;20031;-75
2023/12/14 02:56:17;;;;;;;42.03;20.75;;;;;;;6.96;100.00;98724.72;4986305;28;20063;-75
2023/12/14 02:58:42;;;;;;;37.78;20.75;;;;;;;6.93;100.00;98722.41;4984833;28;20069;-75
2023/12/14 03:01:08;;;;;;;39.80;21.77;;;;;;;6.83;100.00;98728.63;4985097;28;20076;-74
2023/12/14 03:03:33;;;;;;;39.92;20.63;;;;;;;6.79;100.00;98728.06;4985941;28;20443;-74
2023/12/14 03:05:58;;;;;;;39.05;20.60;;;;;;;6.80;100.00;98734.97;4986458;28;20037;-73
2023/12/14 03:08:24;;;;;;;41.97;21.92;;;;;;;6.76;100.00;98730.97;4986592;28;20129;-73
2023/12/14 03:10:49;;;;;;;39.63;21.13;;;;;;;6.64;100.00;98733.84;4973558;28;20037;-74
2023/12/14 03:13:15;;;;;;;37.47;20.17;;;;;;;6.53;100.00;98740.06;4984290;28;20118;-74
2023/12/14 03:15:42;;;;;;;37.13;19.90;;;;;;;6.56;100.00;98742.41;4984852;28;20503;-75
2023/12/14 03:18:07;;;;;;;46.22;21.40;;;;;;;6.51;100.00;98739.38;4985545;28;20027;-74
2023/12/14 03:20:33;;;;;;;41.95;20.58;;;;;;;6.46;100.00;98741.56;4983792;28;20368;-73
2023/12/14 03:22:59;;;;;;;37.53;20.20;;;;;;;6.39;100.00;98740.47;4986419;28;20031;-73
2023/12/14 03:25:24;;;;;;;45.05;22.48;;;;;;;6.33;100.00;98741.84;4982475;28;20492;-73
2023/12/14 03:27:50;;;;;;;41.35;20.60;;;;;;;6.39;100.00;98745.69;4983467;28;20030;-74
2023/12/14 03:30:15;;;;;;;44.30;20.77;;;;;;;6.48;100.00;98750.13;4985316;28;20035;-74
2023/12/14 03:32:42;;;;;;;47.72;22.13;;;;;;;6.41;100.00;98755.09;4984228;28;20070;-73
2023/12/14 03:35:08;;;;;;;45.33;21.98;;;;;;;6.46;100.00;98744.19;4984091;28;20375;-73
2023/12/14 03:37:35;;;;;;;50.17;22.33;;;;;;;6.50;100.00;98750.81;4984773;28;20923;-73
2023/12/14 03:40:01;;;;;;;44.17;22.88;;;;;;;6.52;100.00;98751.50;4983561;28;20531;-72
2023/12/14 03:42:26;;;;;;;45.47;22.67;;;;;;;6.57;100.00;98749.31;4982036;28;20030;-75
2023/12/14 03:44:52;;;;;;;43.80;22.65;;;;;;;6.44;100.00;98761.84;4985930;28;20033;-74
2023/12/14 03:47:17;;;;;;;47.92;22.75;;;;;;;6.43;100.00;98763.63;4982807;28;20122;-74
2023/12/14 03:49:43;;;;;;;45.70;22.50;;;;;;;6.47;100.00;98765.03;4988598;28;20050;-74
2023/12/14 03:52:09;;;;;;;46.50;22.52;;;;;;;6.43;100.00;98762.78;4983793;28;20086;-73
2023/12/14 03:54:35;;;;;;;47.35;22.55;;;;;;;6.44;100.00;98764.47;4983304;28;20113;-73
2023/12/14 03:57:00;;;;;;;47.33;23.63;;;;;;;6.37;100.00;98768.56;4986138;28;20118;-74
2023/12/14 03:59:25;;;;;;;43.22;21.95;;;;;;;6.42;100.00;98769.03;4981934;28;20023;-75
2023/12/14 04:01:51;;;;;;;45.10;22.15;;;;;;;6.45;100.00;98771.38;4982466;28;20097;-75
2023/12/14 04:04:16;;;;;;;50.63;23.02;;;;;;;6.35;100.00;98765.28;4984793;28;20031;-74
2023/12/14 04:06:42;;;;;;;49.70;24.10;;;;;;;6.45;100.00;98771.38;4986611;28;20062;-73
2023/12/14 04:09:07;;;;;;;46.10;23.25;;;;;;;6.46;100.00;98776.47;4987663;28;20026;-74
2023/12/14 04:11:33;;;;;;;45.88;22.65;;;;;;;6.44;100.00;98774.94;4984325;28;20030;-73
2023/12/14 04:13:58;;;;;;;50.72;22.88;;;;;;;6.45;100.00;98776.59;4982035;28;20035;-73
2023/12/14 04:16:24;;;;;;;44.30;22.85;;;;;;;6.45;100.00;98781.84;4985079;28;20120;-73
2023/12/14 04:18:49;;;;;;;50.30;23.02;;;;;;;6.48;100.00;98797.31;4981447;28;20148;-74
2023/12/14 04:21:15;;;;;;;47.15;23.23;;;;;;;6.33;100.00;98790.78;4982664;28;20030;-76
2023/12/14 04:23:40;;;;;;;49.63;23.33;;;;;;;6.31;100.00;98788.28;4983549;28;20035;-73
2023/12/14 04:26:07;;;;;;;50.33;23.20;;;;;;;6.32;100.00;98791.75;4986221;28;20077;-74
2023/12/14 04:28:32;;;;;;;45.65;21.88;;;;;;;6.25;100.00;98801.94;4970726;28;20065;-74
2023/12/14 04:30:58;;;;;;;46.10;22.85;;;;;;;6.24;100.00;98802.09;4989503;28;20100;-73
2023/12/14 04:33:23;;;;;;;47.13;22.98;;;;;;;6.25;100.00;98801.94;4981242;28;20391;-74
2023/12/14 04:35:49;;;;;;;46.05;22.73;;;;;;;6.31;100.00;98814.50;4964708;28;20034;-73
2023/12/14 04:38:14;;;;;;;47.10;22.70;;;;;;;6.28;100.00;98816.56;4984260;28;20078;-73
2023/12/14 04:40:40;;;;;;;48.45;22.75;;;;;;;6.26;100.00;98818.47;4983451;28;20034;-72
2023/12/14 04:43:05;;;;;;;47.22;22.48;;;;;;;6.27;100.00;98826.22;4982838;28;20041;-73
2023/12/14 04:45:31;;;;;;;49.28;23.23;;;;;;;6.22;100.00;98822.34;4987118;28;20046;-73
2023/12/14 04:47:56;;;;;;;42.53;21.98;;;;;;;6.28;100.00;98816.56;4981635;28;20493;-75
2023/12/14 04:50:22;;;;;;;44.50;23.15;;;;;;;6.28;100.00;98819.19;4984458;28;20499;-73
2023/12/14 04:52:47;;;;;;;50.55;23.05;;;;;;;6.23;100.00;98824.81;4980603;28;20031;-73
2023/12/14 04:55:13;;;;;;;51.17;24.13;;;;;;;6.20;100.00;98824.25;4984537;28;20033;-73
2023/12/14 04:57:39;;;;;;;48.03;23.98;;;;;;;6.22;100.00;98827.56;4984323;28;20154;-74
2023/12/14 05:00:05;;;;;;;49.13;23.50;;;;;;;6.18;100.00;98833.06;4966499;28;20190;-74
2023/12/14 05:02:32;;;;;;;53.38;24.33;;;;;;;6.13;100.00;98835.25;4981308;28;20099;-73
2023/12/14 05:04:57;;;;;;;50.08;23.83;;;;;;;6.16;100.00;98840.25;4988099;28;20038;-73
2023/12/14 05:07:23;;;;;;;49.83;23.15;;;;;;;6.20;100.00;98834.72;4983304;28;20026;-73
2023/12/14 05:09:49;;;;;;;52.33;25.27;;;;;;;6.16;100.00;98831.56;4984387;28;20030;-73
2023/12/14 05:12:15;;;;;;;50.58;24.85;;;;;;;6.13;100.00;98821.31;4980758;28;20460;-73
2023/12/14 05:14:40;;;;;;;49.05;25.60;;;;;;;6.08;100.00;98826.97;4984791;28;20030;-73
2023/12/14 05:17:05;;;;;;;47.75;24.80;;;;;;;6.09;100.00;98833.88;4980897;28;20460;-74
2023/12/14 05:19:34;;;;;;;52.90;24.92;;;;;;;6.09;100.00;98838.28;4983680;28;20034;-74
2023/12/14 05:21:59;;;;;;;50.13;25.73;;;;;;;6.10;100.00;98840.78;4967994;28;20034;-75
2023/12/14 05:24:24;;;;;;;54.03;26.02;;;;;;;6.10;100.00;98846.00;4992231;28;20038;-73
2023/12/14 05:26:51;;;;;;;46.33;24.65;;;;;;;6.07;100.00;98846.25;4980949;28;20033;-73
2023/12/14 05:29:17;;;;;;;51.55;25.60;;;;;;;6.06;100.00;98849.88;4984456;28;20030;-74
2023/12/14 05:31:42;;;;;;;54.65;25.38;;;;;;;5.97;100.00;98850.63;4980629;28;20498;-74
2023/12/14 05:34:08;;;;;;;56.78;26.80;;;;;;;6.06;100.00;98857.72;4966590;28;20080;-74
2023/12/14 05:36:33;;;;;;;51.20;25.85;;;;;;;6.02;100.00;98858.91;4979987;28;20554;-74
2023/12/14 05:38:59;;;;;;;50.58;26.52;;;;;;;6.00;100.00;98860.88;4984459;28;20034;-74
2023/12/14 05:41:24;;;;;;;54.78;27.02;;;;;;;5.99;100.00;98864.44;4984768;28;20066;-74
2023/12/14 05:43:50;;;;;;;50.40;25.10;;;;;;;5.95;100.00;98870.06;4988817;28;20109;-74
2023/12/14 05:46:23;;;;;;;55.85;27.48;;;;;;;5.92;100.00;98879.00;4987768;28;20073;-73
2023/12/14 05:48:49;;;;;;;52.97;27.27;;;;;;;5.97;100.00;98882.06;4986315;28;20483;-74
2023/12/14 05:51:36;;;;;;;54.17;26.33;;;;;;;5.88;100.00;98877.63;4992046;28;20506;-74
2023/12/14 05:54:02;;;;;;;55.03;26.48;;;;;;;5.86;100.00;98879.50;4989231;28;20042;-73
2023/12/14 05:56:27;;;;;;;57.33;27.38;;;;;;;5.88;100.00;98885.47;4992590;28;20038;-75
2023/12/14 05:58:53;;;;;;;57.97;27.83;;;;;;;5.87;100.00;98883.81;4993513;28;20050;-75
2023/12/14 06:01:19;;;;;;;55.42;28.30;;;;;;;5.87;100.00;98888.19;4990691;28;20061;-74
2023/12/14 06:03:45;;;;;;;62.70;28.45;;;;;;;5.85;100.00;98896.16;4994859;28;20068;-76
2023/12/14 06:06:13;;;;;;;60.22;29.17;;;;;;;5.86;100.00;98889.97;4987939;28;20558;-75
2023/12/14 06:08:38;;;;;;;57.53;28.38;;;;;;;5.89;100.00;98899.41;4983268;28;20479;-76
2023/12/14 06:11:06;;;;;;;56.65;27.38;;;;;;;5.87;100.00;98899.50;4988806;28;20092;-74
2023/12/14 06:13:32;;;;;;;54.38;28.73;;;;;;;5.95;100.00;98904.13;4980230;28;20045;-76
2023/12/14 06:15:57;;;;;;;53.45;28.25;;;;;;;5.89;100.00;98908.06;4986459;28;20109;-74
2023/12/14 06:18:24;;;;;;;60.08;29.17;;;;;;;5.85;100.00;98919.72;4990021;28;20030;-74
2023/12/14 06:20:49;;;;;;;54.13;28.23;;;;;;;5.82;100.00;98924.41;4998353;28;20042;-75
2023/12/14 06:23:15;;;;;;;56.58;27.33;;;;;;;5.87;100.00;98933.56;4987592;28;20048;-74
2023/12/14 06:25:40;;;;;;;54.78;27.08;;;;;;;5.88;100.00;98935.22;4991788;28;20041;-76
2023/12/14 06:28:05;;;;;;;57.03;28.58;;;;;;;5.93;100.00;98943.53;4991530;28;20105;-75
2023/12/14 06:30:31;;;;;;;55.47;29.25;;;;;;;5.88;100.00;98950.09;4991117;28;20102;-75
2023/12/14 06:32:56;;;;;;;60.63;30.38;;;;;;;5.93;100.00;98935.66;4986819;28;20459;-75
2023/12/14 06:35:22;;;;;;;61.90;29.92;;;;;;;5.94;100.00;98934.72;4995601;28;20054;-74
2023/12/14 06:37:49;;;;;;;56.70;29.20;;;;;;;5.94;100.00;98944.34;4991397;28;20116;-73
2023/12/14 06:40:14;;;;;;;57.28;29.08;;;;;;;5.96;100.00;98958.97;4993086;28;20042;-73
2023/12/14 06:42:41;;;;;;;59.30;31.63;;;;;;;5.93;100.00;98951.38;4993991;28;20050;-74
2023/12/14 06:45:08;;;;;;;59.10;31.17;;;;;;;5.93;100.00;98959.22;4987771;28;20033;-74
2023/12/14 06:47:33;;;;;;;61.22;31.30;;;;;;;5.85;100.00;98956.38;4990327;28;20039;-74
2023/12/14 06:49:59;;;;;;;62.63;31.45;;;;;;;5.86;100.00;98968.50;4988121;28;20125;-73
2023/12/14 06:52:24;;;;;;;65.05;32.50;;;;;;;5.86;100.00;98963.28;4994218;28;20049;-73
2023/12/14 06:54:50;;;;;;;64.75;33.10;;;;;;;5.91;100.00;98971.59;4994856;28;20072;-74
2023/12/14 06:57:15;;;;;;;65.68;31.45;;;;;;;5.93;100.00;98968.88;4992859;28;20026;-76
2023/12/14 06:59:40;;;;;;;57.63;31.15;;;;;;;5.91;100.00;98966.38;4996953;28;20739;-75
2023/12/14 07:02:07;;;;;;;64.82;32.13;;;;;;;5.88;100.00;98971.88;4996435;28;20101;-75
2023/12/14 07:04:32;;;;;;;61.63;32.72;;;;;;;5.87;100.00;98982.44;4991435;28;20073;-74
2023/12/14 07:06:58;;;;;;;59.67;31.77;;;;;;;5.83;100.00;98974.03;4995088;28;20110;-75
2023/12/14 07:09:24;;;;;;;65.45;32.53;;;;;;;5.84;100.00;98985.28;4993220;28;20092;-75
2023/12/14 07:11:50;;;;;;;66.63;33.70;;;;;;;5.84;100.00;98996.59;4988376;28;20038;-74
2023/12/14 07:14:15;;;;;;;60.00;31.67;;;;;;;5.84;100.00;99001.00;4985048;28;20048;-75
2023/12/14 07:16:41;;;;;;;62.03;31.88;;;;;;;5.84;100.00;99001.00;4987177;28;20034;-74
2023/12/14 07:19:07;;;;;;;63.78;31.95;;;;;;;5.82;100.00;99003.78;4974339;28;20030;-75
2023/12/14 07:21:32;;;;;;;59.10;29.73;;;;;;;5.79;100.00;99004.00;4990855;28;20088;-73
2023/12/14 07:23:58;;;;;;;53.13;28.88;;;;;;;5.80;100.00;99004.84;4988009;28;20049;-72
2023/12/14 07:26:24;;;;;;;52.90;29.02;;;;;;;5.76;100.00;99015.59;4980314;28;20027;-73
2023/12/14 07:28:49;;;;;;;53.55;28.70;;;;;;;5.75;100.00;99021.78;4985287;28;20026;-75
2023/12/14 07:31:15;;;;;;;59.17;29.85;;;;;;;5.73;100.00;99015.81;4985075;28;20479;-73
2023/12/14 07:33:40;;;;;;;60.17;31.42;;;;;;;5.71;100.00;99017.72;4984811;28;20049;-74
2023/12/14 07:36:06;;;;;;;61.53;31.98;;;;;;;5.67;100.00;99015.47;4983091;28;20034;-73
2023/12/14 07:38:32;;;;;;;60.50;31.70;;;;;;;5.68;100.00;99017.16;4969189;28;20121;-73
2023/12/14 07:40:57;;;;;;;57.72;29.20;;;;;;;5.68;100.00;99030.25;4988600;28;20502;-73
2023/12/14 07:43:23;;;;;;;60.58;30.92;;;;;;;5.68;100.00;99035.47;4968384;28;20042;-75
2023/12/14 07:45:50;;;;;;;54.78;29.42;;;;;;;5.71;100.00;99037.84;4984054;28;20039;-74
2023/12/14 07:48:16;;;;;;;59.78;30.73;;;;;;;5.71;100.00;99056.19;4997280;22;20054;-75
2023/12/14 07:50:41;;;;;;;55.63;29.55;;;;;;;5.71;100.00;99064.84;4965028;28;20547;-76
2023/12/14 07:53:07;;;;;;;58.58;30.98;;;;;;;5.67;100.00;99071.28;4963847;28;20118;-78
2023/12/14 07:55:32;;;;;;;60.83;30.92;;;;;;;5.64;100.00;99068.09;4966614;28;20061;-77
2023/12/14 07:57:58;;;;;;;62.15;31.27;;;;;;;5.62;100.00;99077.84;4962408;28;20031;-75
2023/12/14 08:00:23;;;;;;;61.45;32.75;;;;;;;5.61;100.00;99076.19;4961298;28;20514;-76
2023/12/14 08:02:49;;;;;;;62.38;31.25;;;;;;;5.61;100.00;99078.78;4963861;28;20047;-76
2023/12/14 08:05:14;;;;;;;53.83;30.02;;;;;;;5.57;100.00;99082.63;4964130;28;20131;-77
2023/12/14 08:07:39;;;;;;;56.35;30.35;;;;;;;5.52;100.00;99080.38;4963285;28;20031;-77
2023/12/14 08:10:05;;;;;;;55.95;30.55;;;;;;;5.53;100.00;99086.44;4966207;28;20391;-76
2023/12/14 08:12:30;;;;;;;59.30;31.52;;;;;;;5.51;100.00;99085.72;4961962;28;20031;-75
2023/12/14 08:14:56;;;;;;;62.58;32.67;;;;;;;5.56;100.00;99091.41;4966369;28;20455;-76
2023/12/14 08:17:21;;;;;;;65.97;32.58;;;;;;;5.60;100.00;99098.06;4963848;28;20066;-76
2023/12/14 08:19:47;;;;;;;58.47;31.65;;;;;;;5.63;100.00;99097.84;4969483;28;20026;-76
2023/12/14 08:22:15;;;;;;;63.30;33.22;;;;;;;5.65;100.00;99106.41;4961479;28;20463;-76
2023/12/14 08:24:41;;;;;;;58.90;32.70;;;;;;;5.65;100.00;99107.25;4965831;28;20042;-77
2023/12/14 08:27:07;;;;;;;59.10;32.38;;;;;;;5.62;100.00;99104.03;4963086;28;20118;-75
2023/12/14 08:29:32;;;;;;;59.50;32.17;;;;;;;5.59;100.00;99112.97;4961869;28;20109;-75
2023/12/14 08:31:59;;;;;;;61.88;33.75;;;;;;;5.50;100.00;99131.16;4961891;28;20404;-75
2023/12/14 08:34:25;;;;;;;64.60;33.00;;;;;;;5.38;100.00;99138.19;4962853;28;20030;-77
2023/12/14 08:36:51;;;;;;;59.03;32.60;;;;;;;5.30;100.00;99144.00;4966570;28;20499;-76
2023/12/14 08:39:17;;;;;;;57.83;30.85;;;;;;;5.21;100.00;99149.97;4965909;28;20039;-77
2023/12/14 08:41:44;;;;;;;51.13;29.88;;;;;;;5.16;100.00;99157.34;4962643;28;20452;-76
2023/12/14 08:44:10;;;;;;;57.55;30.38;;;;;;;5.17;100.00;99159.03;4965677;28;20043;-76
2023/12/14 08:46:42;;;;;;;53.38;27.67;;;;;;;5.20;100.00;99153.53;4960236;28;20098;-77
2023/12/14 08:49:07;;;;;;;44.95;26.35;;;;;;;5.26;100.00;99150.44;4966057;28;20050;-76
2023/12/14 08:51:33;;;;;;;52.20;29.83;;;;;;;5.35;100.00;99149.75;4962017;28;20031;-77
2023/12/14 08:53:58;;;;;;;51.08;28.63;;;;;;;5.50;100.00;99154.72;4966474;28;20474;-77
2023/12/14 08:56:24;;;;;;;66.38;34.42;;;;;;;5.54;100.00;99154.34;4962948;28;20086;-77
2023/12/14 08:58:49;;;;;;;58.78;31.30;;;;;;;5.53;100.00;99154.50;4965615;28;20030;-77
2023/12/14 09:01:22;;;;;;;64.60;35.22;;;;;;;5.59;100.00;99159.25;4964178;28;20035;-76
2023/12/14 09:03:49;;;;;;;64.65;34.28;;;;;;;5.68;100.00;99158.50;4963509;28;20519;-76
2023/12/14 09:06:16;;;;;;;69.35;33.47;;;;;;;5.77;100.00;99168.25;4961035;28;20038;-77
2023/12/14 09:08:42;;;;;;;64.47;33.95;;;;;;;5.85;100.00;99158.00;4963378;28;20038;-77
2023/12/14 09:11:07;;;;;;;62.95;32.25;;;;;;;5.93;100.00;99168.72;4964824;28;20027;-76
2023/12/14 09:13:32;;;;;;;60.97;33.40;;;;;;;5.85;100.00;99171.09;4977016;28;20026;-75
2023/12/14 09:15:58;;;;;;;65.90;33.15;;;;;;;6.01;100.00;99170.72;4973127;28;20031;-77
2023/12/14 09:18:24;;;;;;;62.70;32.28;;;;;;;6.05;100.00;99165.13;4963359;28;20030;-77
2023/12/14 09:20:49;;;;;;;59.20;31.17;;;;;;;6.14;100.00;99171.38;4964982;28;20503;-77
2023/12/14 09:23:16;;;;;;;61.88;33.55;;;;;;;6.23;100.00;99175.06;4962559;28;20039;-75
2023/12/14 09:25:42;;;;;;;59.60;32.53;;;;;;;6.30;100.00;99184.09;4963069;28;20050;-75
2023/12/14 09:28:08;;;;;;;61.05;31.77;;;;;;;6.33;100.00;99189.91;4964274;28;20034;-76
2023/12/14 09:30:33;;;;;;;64.45;33.47;;;;;;;6.25;100.00;99199.34;4958607;28;20072;-77
2023/12/14 09:32:59;;;;;;;61.63;33.03;;;;;;;6.33;100.00;99210.03;4963955;28;20031;-75
2023/12/14 09:35:24;;;;;;;65.32;34.40;;;;;;;6.27;100.00;99214.00;4960187;28;20051;-77
2023/12/14 09:37:50;;;;;;;64.40;33.47;;;;;;;6.41;100.00;99216.34;4965440;28;20133;-76
2023/12/14 09:40:16;;;;;;;63.17;34.88;;;;;;;6.52;100.00;99223.31;4961993;28;20478;-77
2023/12/14 09:42:42;;;;;;;66.93;33.53;;;;;;;6.55;100.00;99223.06;4964203;28;20035;-76
2023/12/14 09:45:09;;;;;;;61.05;33.08;;;;;;;6.58;100.00;99223.66;4962678;28;20105;-77
2023/12/14 09:47:37;;;;;;;60.80;32.30;;;;;;;6.65;100.00;99218.75;4964013;28;20637;-77
2023/12/14 09:50:03;;;;;;;65.22;32.10;;;;;;;6.64;100.00;99226.72;4962677;28;20033;-77
2023/12/14 09:52:29;;;;;;;59.22;31.17;;;;;;;6.72;100.00;99225.13;4971097;28;20124;-77
2023/12/14 09:54:54;;;;;;;61.08;32.28;;;;;;;6.80;100.00;99235.81;4966749;28;20031;-77
2023/12/14 09:57:20;;;;;;;57.47;31.38;;;;;;;6.72;100.00;99240.03;4968359;28;20035;-77
2023/12/14 09:59:53;;;;;;;67.07;33.17;;;;;;;6.69;100.00;99225.41;4965519;28;20046;-78
2023/12/14 10:02:20;;;;;;;66.40;33.22;;;;;;;6.72;100.00;99225.13;4968026;28;20389;-77
2023/12/14 10:04:46;;;;;;;64.60;33.45;;;;;;;6.79;100.00;99236.78;4966139;28;20040;-78
2023/12/14 10:07:12;;;;;;;60.15;33.15;;;;;;;6.91;100.00;99230.53;4959430;28;20031;-77
2023/12/14 10:09:37;;;;;;;58.65;32.60;;;;;;;6.94;100.00;99234.69;4964917;28;20484;-77
2023/12/14 10:12:06;;;;;;;58.58;32.97;;;;;;;7.02;100.00;99242.75;4964565;28;20019;-77
2023/12/14 10:14:32;;;;;;;63.10;33.28;;;;;;;7.11;100.00;99241.16;4965202;28;20038;-78
2023/12/14 10:16:58;;;;;;;55.53;31.42;;;;;;;7.23;100.00;99229.63;4968643;28;20504;-76
2023/12/14 10:19:23;;;;;;;60.95;33.17;;;;;;;7.27;100.00;99231.03;4963787;28;20027;-77
2023/12/14 10:21:50;;;;;;;58.58;31.23;;;;;;;7.28;100.00;99227.44;4968549;28;20569;-75
2023/12/14 10:24:16;;;;;;;53.38;31.50;;;;;;;7.30;100.00;99231.56;4967417;28;20480;-76
2023/12/14 10:26:44;;;;;;;57.75;31.52;;;;;;;7.43;100.00;99241.88;4965749;28;20035;-77
2023/12/14 10:29:10;;;;;;;58.03;30.13;;;;;;;7.54;100.00;99260.16;4966739;28;20118;-77
2023/12/14 10:31:37;;;;;;;58.63;30.02;;;;;;;7.60;100.00;99258.84;4968035;28;20235;-77
2023/12/14 10:34:03;;;;;;;54.30;30.20;;;;;;;7.59;100.00;99257.19;4966783;28;20039;-76
2023/12/14 10:36:30;;;;;;;55.75;31.13;;;;;;;7.68;100.00;99261.63;4965592;28;20054;-76
2023/12/14 10:38:58;;;;;;;60.13;32.28;;;;;;;7.71;100.00;99256.13;4961982;28;20035;-76
2023/12/14 10:41:24;;;;;;;57.88;30.67;;;;;;;7.64;100.00;99258.44;4962106;28;20075;-77
2023/12/14 10:43:50;;;;;;;54.55;29.55;;;;;;;7.71;100.00;99267.47;4966430;28;20041;-76
2023/12/14 10:46:16;;;;;;;60.53;32.03;;;;;;;7.69;100.00;99263.28;4966035;28;20496;-76
2023/12/14 10:48:45;;;;;;;56.10;30.17;;;;;;;7.74;100.00;99267.19;4962955;28;20066;-76
2023/12/14 10:51:15;;;;;;;56.72;30.95;;;;;;;7.75;100.00;99263.59;4966628;28;20060;-76
2023/12/14 10:53:46;;;;;;;56.63;31.58;;;;;;;7.80;100.00;99273.72;4966317;28;20721;-77
2023/12/14 10:56:12;;;;;;;55.47;30.55;;;;;;;7.85;100.00;99268.88;4964677;28;20306;-77
2023/12/14 10:58:55;;;;;;;55.53;30.42;;;;;;;7.87;100.00;99261.72;4967136;28;20041;-77
2023/12/14 11:01:24;;;;;;;56.63;31.38;;;;;;;7.90;100.00;99265.84;4961838;28;20061;-77
2023/12/14 11:03:55;;;;;;;57.55;30.95;;;;;;;7.96;100.00;99254.81;4967895;28;20062;-76
2023/12/14 11:06:30;;;;;;;56.92;32.72;;;;;;;7.95;100.00;99253.97;4966179;28;20031;-76
2023/12/14 11:08:58;;;;;;;63.90;32.28;;;;;;;7.99;100.00;99260.66;4961889;28;20042;-76
2023/12/14 11:11:28;;;;;;;62.38;32.08;;;;;;;8.03;100.00;99264.66;4965725;28;20110;-77